createdAt,value
2018-01-01T00:00:16.161Z,3.70
2018-01-01T00:01:16.157Z,3.10
2018-01-01T00:02:16.146Z,3.40
2018-01-01T00:03:16.139Z,3.60
2018-01-01T00:04:16.132Z,3.40
2018-01-01T00:05:16.126Z,3.40
2018-01-01T00:06:16.117Z,3.00
2018-01-01T00:07:16.117Z,3.20
2018-01-01T00:08:16.112Z,3.10
2018-01-01T00:09:16.104Z,2.90
2018-01-01T00:10:16.099Z,2.80
2018-01-01T00:11:16.092Z,2.60
2018-01-01T00:12:16.081Z,2.70
2018-01-01T00:13:16.081Z,2.50
2018-01-01T00:14:16.067Z,2.80
2018-01-01T00:15:16.065Z,2.50
2018-01-01T00:16:16.055Z,2.50
2018-01-01T00:17:16.062Z,3.00
2018-01-01T00:18:16.053Z,2.90
2018-01-01T00:19:16.043Z,2.70
2018-01-01T00:20:16.048Z,2.50
2018-01-01T00:21:16.035Z,2.20
2018-01-01T00:22:16.023Z,2.10
2018-01-01T00:23:16.013Z,2.30
2018-01-01T00:24:16.013Z,1.90
2018-01-01T00:25:16.012Z,2.30
2018-01-01T00:26:16.024Z,2.20
2018-01-01T00:27:15.994Z,2.20
2018-01-01T00:28:15.983Z,2.00
2018-01-01T00:29:15.990Z,2.30
2018-01-01T00:30:15.973Z,2.30
2018-01-01T00:31:15.970Z,2.40
2018-01-01T00:32:15.958Z,2.60
2018-01-01T00:33:15.953Z,2.30
2018-01-01T00:34:15.949Z,2.40
2018-01-01T00:35:15.936Z,2.40
2018-01-01T00:36:15.948Z,2.60
2018-01-01T00:37:15.927Z,2.80
2018-01-01T00:38:15.934Z,2.80
2018-01-01T00:39:15.916Z,2.50
2018-01-01T00:40:15.941Z,2.70
2018-01-01T00:41:15.903Z,2.70
2018-01-01T00:42:15.900Z,2.80
2018-01-01T00:43:15.902Z,3.10
2018-01-01T00:44:15.903Z,3.20
2018-01-01T00:45:15.881Z,3.00
2018-01-01T00:46:15.887Z,3.00
2018-01-01T00:47:15.864Z,3.30
2018-01-01T00:48:15.861Z,3.10
2018-01-01T00:49:15.855Z,3.40
2018-01-01T00:50:15.873Z,2.90
2018-01-01T00:51:15.847Z,3.20
2018-01-01T00:52:15.838Z,3.10
2018-01-01T00:53:15.825Z,3.50
2018-01-01T00:54:15.823Z,3.10
2018-01-01T00:55:15.815Z,3.60
2018-01-01T00:56:15.825Z,3.20
2018-01-01T00:57:15.796Z,3.30
2018-01-01T00:58:15.799Z,3.40
2018-01-01T00:59:15.804Z,3.50
2018-01-01T01:00:15.792Z,3.80
2018-01-01T01:01:15.781Z,3.60
2018-01-01T01:02:15.774Z,3.70
2018-01-01T01:03:15.768Z,4.00
2018-01-01T01:04:15.757Z,3.60
2018-01-01T01:05:15.752Z,3.50
2018-01-01T01:06:15.751Z,3.90
2018-01-01T01:07:15.739Z,4.00
2018-01-01T01:08:15.759Z,3.70
2018-01-01T01:09:15.732Z,3.90
2018-01-01T01:10:15.726Z,3.70
2018-01-01T01:11:15.717Z,3.80
2018-01-01T01:12:15.719Z,4.00
2018-01-01T01:13:15.703Z,3.90
2018-01-01T01:14:15.738Z,4.10
2018-01-01T01:15:15.732Z,4.30
2018-01-01T01:16:15.685Z,4.60
2018-01-01T01:17:15.680Z,4.30
2018-01-01T01:18:15.674Z,4.10
2018-01-01T01:19:15.666Z,4.50
2018-01-01T01:20:15.659Z,4.80
2018-01-01T01:21:15.655Z,4.30
2018-01-01T01:22:15.647Z,4.80
2018-01-01T01:23:15.640Z,4.40
2018-01-01T01:24:15.635Z,4.40
2018-01-01T01:25:15.628Z,4.90
2018-01-01T01:26:15.624Z,5.10
2018-01-01T01:27:15.616Z,4.90
2018-01-01T01:28:15.609Z,5.10
2018-01-01T01:29:15.602Z,4.90
2018-01-01T01:30:15.596Z,4.90
2018-01-01T01:31:15.590Z,5.20
2018-01-01T01:32:15.586Z,4.90
2018-01-01T01:33:15.579Z,4.60
2018-01-01T01:34:15.575Z,5.10
2018-01-01T01:35:15.566Z,5.50
2018-01-01T01:36:15.560Z,5.00
2018-01-01T01:37:15.553Z,5.50
2018-01-01T01:38:15.546Z,4.90
2018-01-01T01:39:15.538Z,5.10
2018-01-01T01:40:15.536Z,5.10
2018-01-01T01:41:15.533Z,4.70
2018-01-01T01:42:15.525Z,4.90
2018-01-01T01:43:15.518Z,4.80
2018-01-01T01:44:15.509Z,4.50
2018-01-01T01:45:15.509Z,4.50
2018-01-01T01:46:15.502Z,4.30
2018-01-01T01:47:15.496Z,4.30
2018-01-01T01:48:15.486Z,4.80
2018-01-01T01:49:15.483Z,4.40
2018-01-01T01:50:15.477Z,4.80
2018-01-01T01:51:15.472Z,4.20
2018-01-01T01:52:15.467Z,4.50
2018-01-01T01:53:15.460Z,4.60
2018-01-01T01:54:15.452Z,4.70
2018-01-01T01:55:15.450Z,4.40
2018-01-01T01:56:15.443Z,4.20
2018-01-01T01:57:15.430Z,4.60
2018-01-01T01:58:15.432Z,4.30
2018-01-01T01:59:15.426Z,4.10
2018-01-01T02:00:15.422Z,4.20
2018-01-01T02:01:15.412Z,3.80
2018-01-01T02:02:15.406Z,4.00
2018-01-01T02:03:15.400Z,4.00
2018-01-01T02:04:15.395Z,4.00
2018-01-01T02:05:15.389Z,4.00
2018-01-01T02:06:15.407Z,4.50
2018-01-01T02:07:15.378Z,4.00
2018-01-01T02:08:15.373Z,3.70
2018-01-01T02:09:15.367Z,3.50
2018-01-01T02:10:15.359Z,4.20
2018-01-01T02:11:15.356Z,3.70
2018-01-01T02:12:15.350Z,3.60
2018-01-01T02:13:15.345Z,4.00
2018-01-01T02:14:15.336Z,3.50
2018-01-01T02:15:15.331Z,3.60
2018-01-01T02:16:15.328Z,3.30
2018-01-01T02:17:15.324Z,3.80
2018-01-01T02:18:15.318Z,3.60
2018-01-01T02:19:15.314Z,3.10
2018-01-01T02:20:15.301Z,3.00
2018-01-01T02:21:15.300Z,3.10
2018-01-01T02:22:15.296Z,3.10
2018-01-01T02:23:15.292Z,3.10
2018-01-01T02:24:15.283Z,2.70
2018-01-01T02:25:15.276Z,3.20
2018-01-01T02:26:15.274Z,3.10
2018-01-01T02:27:15.268Z,2.90
2018-01-01T02:28:15.263Z,2.60
2018-01-01T02:29:15.255Z,3.20
2018-01-01T02:30:15.253Z,2.80
2018-01-01T02:31:15.247Z,2.60
2018-01-01T02:32:15.243Z,2.90
2018-01-01T02:33:15.237Z,2.50
2018-01-01T02:34:15.233Z,2.80
2018-01-01T02:35:15.227Z,2.70
2018-01-01T02:36:15.221Z,2.70
2018-01-01T02:37:15.214Z,2.40
2018-01-01T02:38:15.209Z,2.40
2018-01-01T02:39:15.204Z,2.70
2018-01-01T02:40:15.200Z,2.70
2018-01-01T02:41:15.193Z,2.60
2018-01-01T02:42:15.193Z,2.40
2018-01-01T02:43:15.184Z,2.50
2018-01-01T02:44:15.172Z,2.30
2018-01-01T02:45:15.169Z,2.40
2018-01-01T02:46:15.160Z,2.50
2018-01-01T02:47:15.158Z,2.40
2018-01-01T02:48:15.153Z,2.20
2018-01-01T02:49:15.148Z,2.70
2018-01-01T02:50:15.140Z,2.30
2018-01-01T02:51:15.144Z,2.30
2018-01-01T02:52:15.131Z,2.30
2018-01-01T02:53:15.124Z,2.00
2018-01-01T02:54:15.119Z,2.20
2018-01-01T02:55:15.125Z,2.20
2018-01-01T02:56:15.106Z,2.50
2018-01-01T02:57:15.103Z,2.10
2018-01-01T02:58:15.098Z,2.50
2018-01-01T02:59:15.092Z,2.50
2018-01-01T03:00:15.084Z,1.90
2018-01-01T03:01:15.081Z,2.40
2018-01-01T03:02:15.076Z,2.30
2018-01-01T03:03:15.070Z,2.10
2018-01-01T03:04:15.065Z,2.00
2018-01-01T03:05:15.058Z,2.30
2018-01-01T03:06:15.049Z,2.00
2018-01-01T03:07:15.048Z,2.10
2018-01-01T03:08:15.043Z,2.40
2018-01-01T03:09:15.035Z,2.00
2018-01-01T03:10:15.642Z,1.90
2018-01-01T03:11:15.027Z,2.20
2018-01-01T03:12:15.018Z,2.10
2018-01-01T03:13:15.012Z,2.00
2018-01-01T03:14:15.019Z,2.10
2018-01-01T03:15:15.001Z,2.20
2018-01-01T03:16:14.995Z,2.00
2018-01-01T03:17:14.991Z,2.00
2018-01-01T03:18:14.982Z,2.10
2018-01-01T03:19:14.986Z,2.20
2018-01-01T03:20:14.969Z,2.10
2018-01-01T03:21:14.968Z,2.40
2018-01-01T03:22:14.960Z,2.30
2018-01-01T03:23:14.954Z,2.20
2018-01-01T03:24:14.952Z,2.20
2018-01-01T03:25:14.944Z,2.10
2018-01-01T03:26:14.932Z,1.90
2018-01-01T03:27:14.932Z,2.30
2018-01-01T03:28:14.923Z,2.10
2018-01-01T03:29:14.921Z,2.30
2018-01-01T03:30:14.914Z,2.50
2018-01-01T03:31:14.904Z,2.40
2018-01-01T03:32:14.901Z,2.10
2018-01-01T03:33:14.896Z,2.40
2018-01-01T03:34:14.890Z,2.00
2018-01-01T03:35:14.894Z,2.30
2018-01-01T03:36:14.876Z,2.40
2018-01-01T03:37:14.873Z,2.30
2018-01-01T03:38:14.864Z,2.30
2018-01-01T03:39:14.859Z,2.30
2018-01-01T03:40:14.853Z,2.60
2018-01-01T03:41:14.844Z,2.80
2018-01-01T03:42:14.844Z,2.50
2018-01-01T03:43:14.836Z,2.30
2018-01-01T03:44:14.828Z,2.10
2018-01-01T03:45:14.830Z,2.50
2018-01-01T03:46:14.818Z,2.80
2018-01-01T03:47:14.814Z,2.30
2018-01-01T03:48:14.803Z,2.60
2018-01-01T03:49:14.798Z,2.60
2018-01-01T03:50:14.791Z,2.70
2018-01-01T03:51:14.784Z,2.20
2018-01-01T03:52:14.779Z,2.20
2018-01-01T03:53:14.770Z,2.50
2018-01-01T03:54:14.765Z,2.30
2018-01-01T03:55:14.758Z,2.70
2018-01-01T03:56:14.753Z,2.20
2018-01-01T03:57:14.749Z,2.80
2018-01-01T03:58:14.740Z,2.70
2018-01-01T03:59:14.736Z,2.40
2018-01-01T04:00:14.729Z,2.70
2018-01-01T04:01:14.718Z,2.80
2018-01-01T04:02:14.716Z,2.50
2018-01-01T04:03:14.710Z,2.90
2018-01-01T04:04:14.702Z,2.80
2018-01-01T04:05:14.696Z,2.50
2018-01-01T04:06:14.690Z,2.80
2018-01-01T04:07:14.681Z,2.20
2018-01-01T04:08:14.678Z,2.60
2018-01-01T04:09:14.669Z,2.80
2018-01-01T04:10:14.661Z,2.90
2018-01-01T04:11:14.655Z,3.10
2018-01-01T04:12:14.650Z,2.70
2018-01-01T04:13:14.641Z,2.60
2018-01-01T04:14:14.633Z,2.60
2018-01-01T04:15:14.628Z,2.60
2018-01-01T04:16:14.621Z,2.60
2018-01-01T04:17:14.615Z,2.20
2018-01-01T04:18:14.606Z,2.50
2018-01-01T04:19:14.602Z,2.90
2018-01-01T04:20:14.594Z,2.50
2018-01-01T04:21:14.584Z,2.20
2018-01-01T04:22:14.576Z,2.50
2018-01-01T04:23:14.572Z,2.30
2018-01-01T04:24:14.564Z,2.50
2018-01-01T04:25:14.557Z,2.50
2018-01-01T04:26:14.549Z,2.60
2018-01-01T04:27:14.545Z,2.30
2018-01-01T04:28:14.539Z,2.60
2018-01-01T04:29:14.528Z,3.20
2018-01-01T04:30:14.525Z,2.40
2018-01-01T04:31:14.514Z,2.30
2018-01-01T04:32:14.507Z,2.50
2018-01-01T04:33:14.502Z,2.50
2018-01-01T04:34:14.497Z,2.90
2018-01-01T04:35:14.491Z,2.90
2018-01-01T04:36:14.484Z,2.60
2018-01-01T04:37:14.473Z,2.50
2018-01-01T04:38:14.467Z,2.90
2018-01-01T04:39:14.462Z,2.70
2018-01-01T04:40:14.452Z,2.70
2018-01-01T04:41:14.449Z,2.50
2018-01-01T04:42:14.439Z,2.70
2018-01-01T04:43:14.436Z,2.80
2018-01-01T04:44:14.429Z,2.90
2018-01-01T04:45:14.420Z,2.50
2018-01-01T04:46:14.415Z,2.40
2018-01-01T04:47:14.415Z,2.50
2018-01-01T04:48:14.399Z,2.60
2018-01-01T04:49:14.405Z,2.50
2018-01-01T04:50:14.388Z,2.10
2018-01-01T04:51:14.381Z,2.20
2018-01-01T04:52:14.375Z,2.40
2018-01-01T04:53:14.368Z,2.60
2018-01-01T04:54:14.362Z,2.50
2018-01-01T04:55:14.355Z,2.80
2018-01-01T04:56:14.350Z,2.70
2018-01-01T04:57:14.343Z,2.50
2018-01-01T04:58:14.348Z,2.80
2018-01-01T04:59:14.324Z,2.60
2018-01-01T05:00:14.322Z,2.60
2018-01-01T05:01:14.310Z,3.10
2018-01-01T05:02:14.313Z,2.60
2018-01-01T05:03:14.299Z,2.60
2018-01-01T05:04:14.297Z,2.60
2018-01-01T05:05:14.291Z,2.80
2018-01-01T05:06:14.284Z,2.60
2018-01-01T05:07:14.276Z,2.80
2018-01-01T05:08:14.271Z,2.70
2018-01-01T05:09:14.267Z,3.10
2018-01-01T05:10:14.262Z,2.60
2018-01-01T05:11:14.252Z,2.60
2018-01-01T05:12:14.255Z,2.50
2018-01-01T05:13:14.238Z,3.10
2018-01-01T05:14:14.235Z,2.50
2018-01-01T05:15:14.224Z,3.10
2018-01-01T05:16:14.220Z,2.70
2018-01-01T05:17:14.211Z,2.60
2018-01-01T05:18:14.215Z,2.50
2018-01-01T05:19:14.196Z,2.90
2018-01-01T05:20:14.202Z,2.40
2018-01-01T05:21:14.189Z,2.20
2018-01-01T05:22:14.181Z,2.30
2018-01-01T05:23:14.170Z,2.40
2018-01-01T05:24:14.163Z,2.30
2018-01-01T05:25:14.156Z,2.30
2018-01-01T05:26:14.149Z,2.30
2018-01-01T05:27:14.142Z,2.10
2018-01-01T05:28:14.132Z,2.00
2018-01-01T05:29:14.123Z,2.40
2018-01-01T05:30:14.116Z,1.90
2018-01-01T05:31:14.110Z,1.70
2018-01-01T05:32:14.100Z,2.20
2018-01-01T05:33:14.111Z,1.50
2018-01-01T05:34:14.090Z,1.70
2018-01-01T05:35:14.085Z,1.70
2018-01-01T05:36:14.077Z,1.70
2018-01-01T05:37:14.068Z,1.50
2018-01-01T05:38:14.063Z,1.30
2018-01-01T05:39:14.053Z,1.60
2018-01-01T05:40:14.049Z,1.40
2018-01-01T05:41:14.040Z,1.30
2018-01-01T05:42:14.032Z,1.30
2018-01-01T05:43:14.026Z,1.40
2018-01-01T05:44:14.019Z,1.50
2018-01-01T05:45:14.010Z,1.20
2018-01-01T05:46:14.000Z,1.40
2018-01-01T05:47:13.998Z,1.30
2018-01-01T05:48:13.990Z,1.30
2018-01-01T05:49:13.980Z,1.20
2018-01-01T05:50:13.973Z,1.00
2018-01-01T05:51:13.967Z,1.10
2018-01-01T05:52:13.960Z,1.10
2018-01-01T05:53:13.950Z,1.20
2018-01-01T05:54:13.941Z,1.30
2018-01-01T05:55:13.935Z,1.30
2018-01-01T05:56:13.928Z,1.10
2018-01-01T05:57:13.920Z,1.40
2018-01-01T05:58:13.913Z,1.10
2018-01-01T05:59:13.906Z,1.10
2018-01-01T06:00:13.896Z,1.40
2018-01-01T06:01:13.889Z,1.20
2018-01-01T06:02:13.894Z,1.30
2018-01-01T06:03:13.877Z,1.20
2018-01-01T06:04:13.870Z,1.10
2018-01-01T06:05:13.862Z,1.00
2018-01-01T06:06:13.871Z,1.10
2018-01-01T06:07:13.849Z,1.20
2018-01-01T06:08:13.840Z,1.20
2018-01-01T06:09:13.835Z,1.10
2018-01-01T06:10:13.825Z,1.00
2018-01-01T06:11:13.819Z,1.00
2018-01-01T06:12:13.812Z,1.10
2018-01-01T06:13:13.804Z,1.20
2018-01-01T06:14:13.795Z,1.40
2018-01-01T06:15:13.789Z,1.00
2018-01-01T06:16:13.781Z,1.20
2018-01-01T06:17:13.773Z,1.20
2018-01-01T06:18:13.767Z,1.20
2018-01-01T06:19:13.761Z,1.10
2018-01-01T06:20:13.751Z,1.10
2018-01-01T06:21:13.746Z,1.20
2018-01-01T06:22:13.737Z,1.00
2018-01-01T06:23:13.730Z,1.10
2018-01-01T06:24:13.725Z,1.20
2018-01-01T06:25:13.717Z,1.00
2018-01-01T06:26:13.708Z,1.20
2018-01-01T06:27:13.704Z,1.30
2018-01-01T06:28:13.699Z,1.00
2018-01-01T06:29:13.687Z,1.50
2018-01-01T06:30:13.680Z,1.20
2018-01-01T06:31:13.673Z,1.10
2018-01-01T06:32:13.666Z,1.10
2018-01-01T06:33:13.658Z,1.10
2018-01-01T06:34:13.651Z,1.10
2018-01-01T06:35:13.642Z,1.50
2018-01-01T06:36:13.642Z,1.30
2018-01-01T06:37:13.629Z,1.20
2018-01-01T06:38:13.620Z,1.40
2018-01-01T06:39:13.615Z,1.50
2018-01-01T06:40:13.610Z,1.40
2018-01-01T06:41:13.599Z,1.50
2018-01-01T06:42:13.597Z,1.30
2018-01-01T06:43:13.588Z,1.40
2018-01-01T06:44:13.581Z,1.50
2018-01-01T06:45:13.575Z,1.50
2018-01-01T06:46:13.568Z,1.40
2018-01-01T06:47:13.559Z,1.30
2018-01-01T06:48:13.555Z,1.50
2018-01-01T06:49:13.545Z,1.60
2018-01-01T06:50:13.539Z,1.60
2018-01-01T06:51:13.531Z,1.70
2018-01-01T06:52:13.528Z,1.40
2018-01-01T06:53:13.514Z,1.80
2018-01-01T06:54:13.515Z,1.60
2018-01-01T06:55:13.503Z,2.00
2018-01-01T06:56:13.502Z,1.60
2018-01-01T06:57:13.494Z,1.70
2018-01-01T06:58:13.483Z,1.50
2018-01-01T06:59:13.476Z,1.80
2018-01-01T07:00:13.470Z,1.60
2018-01-01T07:01:13.466Z,1.60
2018-01-01T07:02:13.453Z,2.00
2018-01-01T07:03:13.452Z,1.60
2018-01-01T07:04:13.445Z,1.50
2018-01-01T07:05:13.436Z,1.60
2018-01-01T07:06:13.427Z,2.00
2018-01-01T07:07:13.421Z,1.80
2018-01-01T07:08:13.413Z,2.10
2018-01-01T07:09:13.406Z,1.90
2018-01-01T07:10:13.398Z,1.50
2018-01-01T07:11:13.391Z,1.40
2018-01-01T07:12:13.386Z,1.70
2018-01-01T07:13:13.377Z,1.80
2018-01-01T07:14:13.375Z,2.00
2018-01-01T07:15:13.362Z,1.70
2018-01-01T07:16:13.355Z,1.60
2018-01-01T07:17:13.348Z,1.50
2018-01-01T07:18:13.341Z,1.70
2018-01-01T07:19:13.333Z,1.50
2018-01-01T07:20:13.326Z,1.50
2018-01-01T07:21:13.317Z,1.40
2018-01-01T07:22:13.310Z,1.40
2018-01-01T07:23:13.305Z,1.50
2018-01-01T07:24:13.298Z,1.30
2018-01-01T07:25:13.289Z,1.60
2018-01-01T07:26:13.280Z,1.60
2018-01-01T07:27:14.240Z,1.60
2018-01-01T07:28:13.271Z,1.50
2018-01-01T07:29:13.260Z,1.70
2018-01-01T07:30:13.256Z,1.30
2018-01-01T07:31:13.246Z,1.60
2018-01-01T07:32:13.242Z,1.40
2018-01-01T07:33:13.231Z,1.40
2018-01-01T07:34:13.228Z,1.70
2018-01-01T07:35:13.215Z,1.50
2018-01-01T07:36:13.211Z,1.60
2018-01-01T07:37:13.204Z,1.40
2018-01-01T07:38:13.194Z,1.20
2018-01-01T07:39:13.189Z,1.40
2018-01-01T07:40:13.186Z,1.20
2018-01-01T07:41:13.174Z,1.30
2018-01-01T07:42:13.210Z,1.30
2018-01-01T07:43:13.160Z,1.20
2018-01-01T07:44:13.153Z,1.10
2018-01-01T07:45:13.148Z,1.40
2018-01-01T07:46:13.140Z,1.40
2018-01-01T07:47:13.136Z,1.30
2018-01-01T07:48:13.127Z,1.40
2018-01-01T07:49:13.121Z,1.40
2018-01-01T07:50:13.116Z,1.40
2018-01-01T07:51:13.105Z,1.30
2018-01-01T07:52:13.101Z,1.30
2018-01-01T07:53:13.090Z,1.20
2018-01-01T07:54:13.085Z,1.50
2018-01-01T07:55:13.079Z,1.50
2018-01-01T07:56:13.074Z,1.50
2018-01-01T07:57:13.064Z,1.40
2018-01-01T07:58:13.060Z,1.30
2018-01-01T07:59:13.058Z,1.40
2018-01-01T08:00:13.048Z,1.60
2018-01-01T08:01:13.042Z,1.50
2018-01-01T08:02:13.039Z,1.30
2018-01-01T08:03:13.026Z,1.60
2018-01-01T08:04:13.020Z,1.40
2018-01-01T08:05:13.016Z,1.60
2018-01-01T08:06:13.012Z,1.60
2018-01-01T08:07:13.006Z,1.70
2018-01-01T08:08:12.998Z,1.80
2018-01-01T08:09:12.998Z,1.90
2018-01-01T08:10:12.998Z,2.80
2018-01-01T08:11:12.988Z,2.70
2018-01-01T08:12:12.987Z,3.60
2018-01-01T08:13:12.966Z,3.50
2018-01-01T08:14:12.966Z,2.90
2018-01-01T08:15:12.971Z,2.40
2018-01-01T08:16:12.968Z,2.10
2018-01-01T08:17:12.940Z,2.50
2018-01-01T08:18:12.937Z,1.80
2018-01-01T08:19:12.930Z,2.40
2018-01-01T08:20:13.786Z,1.80
2018-01-01T08:21:12.917Z,1.90
2018-01-01T08:22:12.904Z,1.90
2018-01-01T08:23:12.906Z,1.80
2018-01-01T08:24:12.899Z,2.10
2018-01-01T08:25:12.892Z,2.10
2018-01-01T08:26:12.886Z,2.50
2018-01-01T08:27:12.879Z,1.90
2018-01-01T08:28:12.873Z,1.80
2018-01-01T08:29:12.873Z,2.10
2018-01-01T08:30:13.717Z,2.10
2018-01-01T08:31:12.864Z,2.20
2018-01-01T08:32:12.866Z,2.40
2018-01-01T08:33:12.844Z,2.20
2018-01-01T08:34:12.834Z,2.50
2018-01-01T08:35:13.788Z,2.30
2018-01-01T08:36:12.826Z,2.20
2018-01-01T08:37:12.815Z,2.30
2018-01-01T08:38:12.810Z,2.30
2018-01-01T08:39:12.795Z,2.00
2018-01-01T08:40:12.798Z,2.20
2018-01-01T08:41:12.793Z,2.10
2018-01-01T08:42:12.785Z,2.40
2018-01-01T08:43:12.783Z,2.00
2018-01-01T08:44:12.774Z,2.40
2018-01-01T08:45:12.768Z,2.00
2018-01-01T08:46:12.765Z,2.50
2018-01-01T08:47:12.757Z,1.80
2018-01-01T08:48:12.748Z,2.00
2018-01-01T08:49:12.748Z,2.30
2018-01-01T08:50:12.751Z,2.20
2018-01-01T08:51:12.740Z,2.10
2018-01-01T08:52:12.729Z,2.00
2018-01-01T08:53:12.717Z,2.40
2018-01-01T08:54:12.717Z,2.00
2018-01-01T08:55:12.712Z,2.20
2018-01-01T08:56:12.699Z,2.10
2018-01-01T08:57:12.697Z,2.20
2018-01-01T08:58:12.684Z,2.10
2018-01-01T08:59:12.726Z,2.30
2018-01-01T09:00:12.675Z,2.20
2018-01-01T09:01:12.667Z,2.10
2018-01-01T09:02:13.221Z,2.10
2018-01-01T09:03:12.655Z,2.00
2018-01-01T09:04:12.649Z,2.20
2018-01-01T09:05:12.643Z,2.30
2018-01-01T09:06:12.637Z,2.20
2018-01-01T09:07:12.628Z,2.60
2018-01-01T09:08:12.629Z,2.90
2018-01-01T09:09:12.620Z,2.90
2018-01-01T09:10:12.616Z,2.70
2018-01-01T09:11:12.599Z,2.80
2018-01-01T09:12:12.600Z,3.00
2018-01-01T09:13:12.594Z,2.90
2018-01-01T09:14:12.586Z,2.60
2018-01-01T09:15:12.580Z,2.90
2018-01-01T09:16:12.575Z,2.80
2018-01-01T09:17:12.569Z,2.70
2018-01-01T09:18:12.561Z,2.60
2018-01-01T09:19:12.555Z,2.70
2018-01-01T09:20:12.543Z,2.50
2018-01-01T09:21:12.540Z,2.40
2018-01-01T09:22:12.535Z,2.70
2018-01-01T09:23:12.528Z,2.20
2018-01-01T09:24:12.525Z,2.80
2018-01-01T09:25:12.514Z,2.60
2018-01-01T09:26:12.510Z,2.30
2018-01-01T09:27:12.524Z,2.60
2018-01-01T09:28:12.495Z,2.50
2018-01-01T09:29:12.490Z,2.40
2018-01-01T09:30:12.484Z,2.40
2018-01-01T09:31:12.476Z,2.40
2018-01-01T09:32:12.473Z,2.50
2018-01-01T09:33:12.466Z,2.70
2018-01-01T09:34:12.460Z,2.30
2018-01-01T09:35:12.454Z,2.80
2018-01-01T09:36:12.448Z,2.60
2018-01-01T09:37:12.442Z,2.20
2018-01-01T09:38:12.436Z,2.60
2018-01-01T09:39:12.431Z,2.70
2018-01-01T09:40:12.427Z,2.80
2018-01-01T09:41:12.418Z,2.70
2018-01-01T09:42:12.414Z,2.90
2018-01-01T09:43:12.411Z,2.70
2018-01-01T09:44:12.402Z,2.60
2018-01-01T09:45:12.395Z,2.80
2018-01-01T09:46:12.391Z,2.60
2018-01-01T09:47:12.384Z,2.80
2018-01-01T09:48:12.380Z,2.70
2018-01-01T09:49:12.373Z,2.50
2018-01-01T09:50:12.366Z,2.70
2018-01-01T09:51:12.362Z,3.00
2018-01-01T09:52:12.357Z,2.50
2018-01-01T09:53:12.351Z,3.10
2018-01-01T09:54:12.343Z,2.60
2018-01-01T09:55:12.337Z,2.60
2018-01-01T09:56:12.334Z,2.50
2018-01-01T09:57:12.327Z,2.70
2018-01-01T09:58:12.320Z,2.60
2018-01-01T09:59:12.326Z,2.50
2018-01-01T10:00:12.308Z,2.50
2018-01-01T10:01:12.302Z,2.50
2018-01-01T10:02:12.296Z,2.60
2018-01-01T10:03:12.290Z,2.30
2018-01-01T10:04:12.288Z,2.80
2018-01-01T10:05:12.282Z,2.80
2018-01-01T10:06:12.273Z,2.90
2018-01-01T10:07:12.269Z,2.70
2018-01-01T10:08:12.262Z,3.00
2018-01-01T10:09:12.255Z,2.70
2018-01-01T10:10:12.247Z,2.60
2018-01-01T10:11:12.243Z,2.30
2018-01-01T10:12:12.239Z,3.00
2018-01-01T10:13:12.234Z,2.50
2018-01-01T10:14:12.226Z,2.80
2018-01-01T10:15:12.220Z,2.50
2018-01-01T10:16:12.209Z,2.10
2018-01-01T10:17:12.204Z,2.40
2018-01-01T10:18:12.197Z,2.70
2018-01-01T10:19:12.189Z,2.50
2018-01-01T10:20:12.185Z,2.70
2018-01-01T10:21:12.179Z,2.50
2018-01-01T10:22:12.171Z,2.50
2018-01-01T10:23:12.166Z,2.50
2018-01-01T10:24:12.159Z,2.40
2018-01-01T10:25:12.150Z,2.50
2018-01-01T10:26:12.146Z,2.50
2018-01-01T10:27:12.143Z,3.00
2018-01-01T10:28:12.130Z,2.60
2018-01-01T10:29:12.123Z,2.50
2018-01-01T10:30:12.118Z,2.60
2018-01-01T10:31:12.112Z,2.80
2018-01-01T10:32:12.108Z,2.60
2018-01-01T10:33:12.097Z,2.50
2018-01-01T10:34:12.094Z,3.00
2018-01-01T10:35:12.085Z,2.40
2018-01-01T10:36:12.081Z,1.90
2018-01-01T10:37:12.075Z,2.10
2018-01-01T10:38:12.066Z,2.10
2018-01-01T10:39:12.060Z,2.00
2018-01-01T10:40:12.053Z,2.00
2018-01-01T10:41:12.045Z,1.90
2018-01-01T10:42:12.037Z,1.90
2018-01-01T10:43:12.033Z,2.10
2018-01-01T10:44:12.024Z,1.90
2018-01-01T10:45:12.018Z,2.20
2018-01-01T10:46:12.012Z,2.00
2018-01-01T10:48:11.997Z,1.90
2018-01-01T10:49:11.995Z,2.30
2018-01-01T10:50:11.983Z,2.30
2018-01-01T10:51:11.981Z,1.60
2018-01-01T10:52:11.974Z,1.70
2018-01-01T10:53:11.963Z,2.20
2018-01-01T10:54:32.964Z,1.90
2018-01-01T10:55:11.949Z,1.70
2018-01-01T10:56:11.944Z,1.80
2018-01-01T10:57:11.934Z,1.90
2018-01-01T10:58:11.925Z,1.60
2018-01-01T10:59:11.921Z,1.60
2018-01-01T11:00:32.920Z,1.70
2018-01-01T11:01:11.907Z,1.40
2018-01-01T11:02:11.899Z,1.30
2018-01-01T11:03:11.896Z,1.50
2018-01-01T11:04:11.888Z,1.30
2018-01-01T11:05:12.760Z,1.30
2018-01-01T11:06:32.877Z,1.60
2018-01-01T11:07:11.867Z,1.20
2018-01-01T11:08:11.858Z,1.20
2018-01-01T11:09:11.851Z,1.30
2018-01-01T11:10:11.844Z,1.20
2018-01-01T11:11:11.838Z,1.30
2018-01-01T11:12:32.837Z,1.50
2018-01-01T11:13:11.823Z,1.30
2018-01-01T11:14:11.817Z,1.40
2018-01-01T11:15:11.811Z,1.50
2018-01-01T11:16:11.804Z,1.60
2018-01-01T11:17:11.798Z,1.50
2018-01-01T11:18:33.761Z,1.50
2018-01-01T11:19:11.783Z,1.40
2018-01-01T11:20:11.778Z,1.30
2018-01-01T11:21:11.770Z,1.70
2018-01-01T11:22:11.765Z,1.60
2018-01-01T11:23:11.760Z,1.70
2018-01-01T11:24:32.762Z,1.70
2018-01-01T11:25:11.752Z,1.60
2018-01-01T11:26:11.743Z,1.80
2018-01-01T11:27:11.739Z,1.60
2018-01-01T11:28:11.729Z,1.80
2018-01-01T11:29:11.723Z,1.70
2018-01-01T11:30:32.725Z,1.70
2018-01-01T11:31:11.716Z,2.00
2018-01-01T11:32:11.707Z,1.80
2018-01-01T11:33:11.703Z,2.00
2018-01-01T11:34:11.690Z,1.90
2018-01-01T11:35:11.692Z,2.10
2018-01-01T11:36:32.689Z,2.00
2018-01-01T11:37:11.673Z,2.20
2018-01-01T11:38:11.671Z,2.00
2018-01-01T11:39:11.661Z,2.00
2018-01-01T11:40:11.660Z,2.70
2018-01-01T11:41:11.651Z,2.20
2018-01-01T11:42:32.652Z,2.00
2018-01-01T11:43:11.640Z,2.40
2018-01-01T11:44:11.633Z,2.50
2018-01-01T11:45:11.626Z,2.50
2018-01-01T11:46:11.629Z,1.90
2018-01-01T11:47:11.613Z,2.20
2018-01-01T11:48:32.612Z,2.10
2018-01-01T11:49:11.600Z,2.20
2018-01-01T11:50:11.596Z,2.10
2018-01-01T11:51:11.592Z,2.70
2018-01-01T11:52:11.588Z,2.40
2018-01-01T11:53:11.581Z,2.40
2018-01-01T11:54:32.576Z,1.90
2018-01-01T11:55:11.564Z,2.00
2018-01-01T11:56:11.558Z,2.30
2018-01-01T11:57:11.555Z,2.20
2018-01-01T11:58:11.545Z,1.80
2018-01-01T11:59:11.540Z,2.20
2018-01-01T12:00:32.540Z,2.00
2018-01-01T12:01:11.525Z,1.80
2018-01-01T12:02:11.516Z,1.90
2018-01-01T12:03:11.514Z,2.00
2018-01-01T12:04:11.505Z,2.10
2018-01-01T12:05:11.499Z,1.80
2018-01-01T12:06:32.500Z,1.80
2018-01-01T12:07:11.486Z,1.80
2018-01-01T12:08:11.481Z,2.00
2018-01-01T12:09:11.471Z,2.00
2018-01-01T12:10:11.467Z,2.10
2018-01-01T12:11:11.461Z,2.20
2018-01-01T12:12:33.276Z,2.00
2018-01-01T12:13:11.450Z,1.90
2018-01-01T12:14:11.438Z,2.40
2018-01-01T12:15:11.435Z,2.00
2018-01-01T12:16:11.432Z,2.10
2018-01-01T12:17:11.421Z,2.20
2018-01-01T12:18:32.418Z,2.70
2018-01-01T12:19:11.410Z,2.30
2018-01-01T12:20:12.277Z,2.20
2018-01-01T12:21:11.400Z,2.50
2018-01-01T12:22:11.392Z,2.60
2018-01-01T12:23:11.387Z,2.50
2018-01-01T12:24:32.390Z,2.70
2018-01-01T12:25:11.371Z,2.30
2018-01-01T12:26:11.368Z,2.70
2018-01-01T12:27:11.358Z,2.50
2018-01-01T12:28:11.356Z,2.10
2018-01-01T12:29:11.346Z,2.60
2018-01-01T12:30:32.349Z,2.40
2018-01-01T12:31:11.336Z,2.80
2018-01-01T12:32:11.330Z,2.40
2018-01-01T12:33:11.328Z,2.30
2018-01-01T12:34:11.321Z,2.40
2018-01-01T12:35:11.316Z,2.30
2018-01-01T12:36:32.317Z,2.10
2018-01-01T12:37:11.304Z,2.50
2018-01-01T12:38:11.298Z,2.90
2018-01-01T12:39:11.292Z,2.60
2018-01-01T12:40:11.287Z,2.50
2018-01-01T12:41:11.279Z,2.50
2018-01-01T12:42:32.283Z,3.00
2018-01-01T12:43:11.278Z,2.50
2018-01-01T12:44:11.268Z,2.60
2018-01-01T12:45:11.257Z,2.40
2018-01-01T12:46:11.256Z,2.70
2018-01-01T12:47:11.252Z,2.60
2018-01-01T12:48:32.254Z,3.10
2018-01-01T12:49:11.238Z,2.80
2018-01-01T12:50:11.231Z,2.60
2018-01-01T12:51:11.226Z,2.70
2018-01-01T12:52:11.223Z,2.80
2018-01-01T12:53:11.218Z,3.20
2018-01-01T12:54:32.218Z,2.90
2018-01-01T12:55:11.206Z,3.00
2018-01-01T12:56:11.204Z,2.90
2018-01-01T12:57:11.195Z,2.90
2018-01-01T12:58:11.190Z,2.80
2018-01-01T12:59:11.187Z,3.30
2018-01-01T13:00:32.189Z,2.70
2018-01-01T13:01:11.171Z,3.20
2018-01-01T13:02:11.170Z,2.80
2018-01-01T13:03:11.167Z,2.90
2018-01-01T13:04:11.160Z,2.80
2018-01-01T13:05:11.153Z,2.90
2018-01-01T13:06:32.154Z,2.80
2018-01-01T13:07:11.139Z,3.30
2018-01-01T13:08:11.139Z,3.10
2018-01-01T13:09:11.133Z,3.00
2018-01-01T13:10:11.149Z,3.30
2018-01-01T13:11:11.118Z,3.10
2018-01-01T13:12:32.122Z,3.20
2018-01-01T13:13:11.110Z,3.00
2018-01-01T13:14:11.103Z,3.50
2018-01-01T13:15:11.099Z,3.70
2018-01-01T13:16:11.095Z,4.10
2018-01-01T13:17:11.088Z,3.90
2018-01-01T13:18:32.090Z,4.10
2018-01-01T13:19:11.079Z,3.10